sensor_id;sensor_type;location;lat;lon;timestamp;temperature;humidity
37426;DHT22;23285;50.180;7.036;2022-08-19T00:00:39;20.90;99.90
37426;DHT22;23285;50.180;7.036;2022-08-19T00:03:24;21.20;99.90
37426;DHT22;23285;50.180;7.036;2022-08-19T00:06:09;21.50;99.90
37426;DHT22;23285;50.180;7.036;2022-08-19T00:08:55;21.20;99.90
37426;DHT22;23285;50.180;7.036;2022-08-19T00:11:41;21.20;99.90
37426;DHT22;23285;50.180;7.036;2022-08-19T00:14:27;21.10;99.90
37426;DHT22;23285;50.180;7.036;2022-08-19T00:17:14;21.30;99.90
37426;DHT22;23285;50.180;7.036;2022-08-19T00:22:45;21.10;99.90
37426;DHT22;23285;50.180;7.036;2022-08-19T00:25:31;21.10;99.90
37426;DHT22;23285;50.180;7.036;2022-08-19T00:33:49;21.10;99.90
37426;DHT22;23285;50.180;7.036;2022-08-19T00:36:36;20.90;99.90
37426;DHT22;23285;50.180;7.036;2022-08-19T00:39:22;21.00;99.90
37426;DHT22;23285;50.180;7.036;2022-08-19T00:42:07;21.10;99.90
37426;DHT22;23285;50.180;7.036;2022-08-19T00:44:52;21.00;99.90
37426;DHT22;23285;50.180;7.036;2022-08-19T00:47:37;21.00;99.90
37426;DHT22;23285;50.180;7.036;2022-08-19T00:53:08;20.90;99.90
37426;DHT22;23285;50.180;7.036;2022-08-19T00:58:40;21.00;99.90
37426;DHT22;23285;50.180;7.036;2022-08-19T01:01:26;21.20;99.90
37426;DHT22;23285;50.180;7.036;2022-08-19T01:04:11;21.40;99.90
37426;DHT22;23285;50.180;7.036;2022-08-19T01:12:27;21.00;99.90
37426;DHT22;23285;50.180;7.036;2022-08-19T01:26:28;20.90;99.90
37426;DHT22;23285;50.180;7.036;2022-08-19T01:29:13;20.70;99.90
37426;DHT22;23285;50.180;7.036;2022-08-19T01:34:44;20.60;99.90
37426;DHT22;23285;50.180;7.036;2022-08-19T01:40:30;20.50;99.90
37426;DHT22;23285;50.180;7.036;2022-08-19T01:43:16;20.50;99.90
37426;DHT22;23285;50.180;7.036;2022-08-19T01:46:02;20.50;99.90
37426;DHT22;23285;50.180;7.036;2022-08-19T01:48:47;20.40;99.90
37426;DHT22;23285;50.180;7.036;2022-08-19T01:54:20;20.30;99.90
37426;DHT22;23285;50.180;7.036;2022-08-19T01:57:08;20.20;99.90
37426;DHT22;23285;50.180;7.036;2022-08-19T02:05:27;19.80;99.90
37426;DHT22;23285;50.180;7.036;2022-08-19T02:16:30;19.50;99.90
37426;DHT22;23285;50.180;7.036;2022-08-19T02:19:15;19.50;99.90
37426;DHT22;23285;50.180;7.036;2022-08-19T02:22:00;19.50;99.90
37426;DHT22;23285;50.180;7.036;2022-08-19T02:27:32;19.30;99.90
37426;DHT22;23285;50.180;7.036;2022-08-19T02:30:18;19.20;99.90
37426;DHT22;23285;50.180;7.036;2022-08-19T02:33:04;19.30;99.90
37426;DHT22;23285;50.180;7.036;2022-08-19T02:38:35;19.30;99.90
37426;DHT22;23285;50.180;7.036;2022-08-19T02:46:54;19.40;99.90
37426;DHT22;23285;50.180;7.036;2022-08-19T02:49:40;19.40;99.90
37426;DHT22;23285;50.180;7.036;2022-08-19T02:52:25;19.60;99.90
37426;DHT22;23285;50.180;7.036;2022-08-19T02:55:11;19.80;99.90
37426;DHT22;23285;50.180;7.036;2022-08-19T03:00:47;19.40;99.90
37426;DHT22;23285;50.180;7.036;2022-08-19T03:03:33;19.50;99.90
37426;DHT22;23285;50.180;7.036;2022-08-19T03:06:19;19.50;99.90
37426;DHT22;23285;50.180;7.036;2022-08-19T03:11:50;19.30;99.90
37426;DHT22;23285;50.180;7.036;2022-08-19T03:14:36;19.40;99.90
37426;DHT22;23285;50.180;7.036;2022-08-19T03:17:21;19.40;99.90
37426;DHT22;23285;50.180;7.036;2022-08-19T03:20:06;19.60;99.90
37426;DHT22;23285;50.180;7.036;2022-08-19T03:23:01;19.60;99.90
37426;DHT22;23285;50.180;7.036;2022-08-19T03:25:47;19.70;99.90
37426;DHT22;23285;50.180;7.036;2022-08-19T03:28:33;19.70;99.90
37426;DHT22;23285;50.180;7.036;2022-08-19T03:31:20;19.80;99.90
37426;DHT22;23285;50.180;7.036;2022-08-19T03:34:19;19.70;99.90
37426;DHT22;23285;50.180;7.036;2022-08-19T03:37:08;19.60;99.90
37426;DHT22;23285;50.180;7.036;2022-08-19T03:42:39;19.50;99.90
37426;DHT22;23285;50.180;7.036;2022-08-19T03:45:27;19.60;99.90
37426;DHT22;23285;50.180;7.036;2022-08-19T03:48:12;19.70;99.90
37426;DHT22;23285;50.180;7.036;2022-08-19T03:53:43;19.60;99.90
37426;DHT22;23285;50.180;7.036;2022-08-19T03:59:20;19.80;99.90
37426;DHT22;23285;50.180;7.036;2022-08-19T04:02:09;19.80;99.90
37426;DHT22;23285;50.180;7.036;2022-08-19T04:07:40;19.80;99.90
37426;DHT22;23285;50.180;7.036;2022-08-19T04:13:10;19.90;99.90
37426;DHT22;23285;50.180;7.036;2022-08-19T04:15:55;20.00;99.90
37426;DHT22;23285;50.180;7.036;2022-08-19T04:18:41;19.90;99.90
37426;DHT22;23285;50.180;7.036;2022-08-19T04:24:14;19.90;99.90
37426;DHT22;23285;50.180;7.036;2022-08-19T04:29:45;19.60;99.90
37426;DHT22;23285;50.180;7.036;2022-08-19T04:32:32;19.40;99.90
37426;DHT22;23285;50.180;7.036;2022-08-19T04:35:17;19.20;99.90
37426;DHT22;23285;50.180;7.036;2022-08-19T04:38:02;19.10;99.90
37426;DHT22;23285;50.180;7.036;2022-08-19T04:43:53;19.20;99.90
37426;DHT22;23285;50.180;7.036;2022-08-19T04:49:24;18.90;99.90
37426;DHT22;23285;50.180;7.036;2022-08-19T04:52:09;18.70;99.90
37426;DHT22;23285;50.180;7.036;2022-08-19T04:57:40;18.80;99.90
37426;DHT22;23285;50.180;7.036;2022-08-19T05:00:25;19.00;99.90
37426;DHT22;23285;50.180;7.036;2022-08-19T05:03:10;19.30;99.90
37426;DHT22;23285;50.180;7.036;2022-08-19T05:08:42;19.20;99.90
37426;DHT22;23285;50.180;7.036;2022-08-19T05:11:31;19.20;99.90
37426;DHT22;23285;50.180;7.036;2022-08-19T05:14:17;19.20;99.90
37426;DHT22;23285;50.180;7.036;2022-08-19T05:17:02;18.90;99.90
37426;DHT22;23285;50.180;7.036;2022-08-19T05:19:47;18.90;99.90
37426;DHT22;23285;50.180;7.036;2022-08-19T05:22:50;19.10;99.90
37426;DHT22;23285;50.180;7.036;2022-08-19T05:25:39;19.10;99.90
37426;DHT22;23285;50.180;7.036;2022-08-19T05:28:26;19.30;99.90
37426;DHT22;23285;50.180;7.036;2022-08-19T05:31:11;19.40;99.90
37426;DHT22;23285;50.180;7.036;2022-08-19T05:36:44;19.70;99.90
37426;DHT22;23285;50.180;7.036;2022-08-19T05:42:17;19.70;99.90
37426;DHT22;23285;50.180;7.036;2022-08-19T05:45:05;19.80;99.90
37426;DHT22;23285;50.180;7.036;2022-08-19T05:47:51;19.90;99.90
37426;DHT22;23285;50.180;7.036;2022-08-19T05:56:10;20.70;99.90
37426;DHT22;23285;50.180;7.036;2022-08-19T05:58:55;20.70;99.90
37426;DHT22;23285;50.180;7.036;2022-08-19T06:01:43;20.60;99.90
37426;DHT22;23285;50.180;7.036;2022-08-19T06:04:29;20.30;99.90
37426;DHT22;23285;50.180;7.036;2022-08-19T06:07:14;20.70;99.90
37426;DHT22;23285;50.180;7.036;2022-08-19T06:10:00;20.80;99.90
37426;DHT22;23285;50.180;7.036;2022-08-19T06:15:30;20.90;99.90
37426;DHT22;23285;50.180;7.036;2022-08-19T06:18:16;21.20;99.90
37426;DHT22;23285;50.180;7.036;2022-08-19T06:21:01;21.30;99.90
37426;DHT22;23285;50.180;7.036;2022-08-19T06:23:49;21.20;99.90
37426;DHT22;23285;50.180;7.036;2022-08-19T06:26:38;20.70;99.90
37426;DHT22;23285;50.180;7.036;2022-08-19T06:29:25;20.60;99.90
37426;DHT22;23285;50.180;7.036;2022-08-19T06:32:10;20.50;99.90
37426;DHT22;23285;50.180;7.036;2022-08-19T06:34:55;20.40;99.90
37426;DHT22;23285;50.180;7.036;2022-08-19T06:40:27;20.40;99.90
37426;DHT22;23285;50.180;7.036;2022-08-19T06:43:12;20.50;99.90
37426;DHT22;23285;50.180;7.036;2022-08-19T06:45:58;20.40;99.90
37426;DHT22;23285;50.180;7.036;2022-08-19T06:48:43;20.50;99.90
37426;DHT22;23285;50.180;7.036;2022-08-19T06:51:29;20.60;99.90
37426;DHT22;23285;50.180;7.036;2022-08-19T06:54:17;20.30;99.90
37426;DHT22;23285;50.180;7.036;2022-08-19T06:57:02;20.40;99.90
37426;DHT22;23285;50.180;7.036;2022-08-19T06:59:47;20.40;99.90
37426;DHT22;23285;50.180;7.036;2022-08-19T07:05:18;20.80;99.90
37426;DHT22;23285;50.180;7.036;2022-08-19T07:08:03;20.80;99.90
37426;DHT22;23285;50.180;7.036;2022-08-19T07:16:21;21.60;99.90
37426;DHT22;23285;50.180;7.036;2022-08-19T07:19:07;21.60;99.90
37426;DHT22;23285;50.180;7.036;2022-08-19T07:21:53;21.60;99.90
37426;DHT22;23285;50.180;7.036;2022-08-19T07:24:38;21.50;99.90
37426;DHT22;23285;50.180;7.036;2022-08-19T07:27:23;21.70;99.90
37426;DHT22;23285;50.180;7.036;2022-08-19T07:32:55;22.20;99.90
37426;DHT22;23285;50.180;7.036;2022-08-19T07:35:41;22.30;99.90
37426;DHT22;23285;50.180;7.036;2022-08-19T07:38:26;22.30;99.90
37426;DHT22;23285;50.180;7.036;2022-08-19T07:41:14;22.20;99.90
37426;DHT22;23285;50.180;7.036;2022-08-19T07:46:52;22.40;99.90
37426;DHT22;23285;50.180;7.036;2022-08-19T07:49:38;22.20;99.90
37426;DHT22;23285;50.180;7.036;2022-08-19T07:52:23;22.30;99.90
37426;DHT22;23285;50.180;7.036;2022-08-19T07:55:10;22.30;99.90
37426;DHT22;23285;50.180;7.036;2022-08-19T07:57:55;22.50;99.90
37426;DHT22;23285;50.180;7.036;2022-08-19T08:06:32;23.00;99.90
37426;DHT22;23285;50.180;7.036;2022-08-19T08:09:38;23.10;99.90
37426;DHT22;23285;50.180;7.036;2022-08-19T08:12:33;23.10;99.90
37426;DHT22;23285;50.180;7.036;2022-08-19T08:15:18;22.80;99.90
37426;DHT22;23285;50.180;7.036;2022-08-19T08:18:04;23.00;99.90
37426;DHT22;23285;50.180;7.036;2022-08-19T08:20:49;23.30;99.90
37426;DHT22;23285;50.180;7.036;2022-08-19T08:23:34;23.50;99.90
37426;DHT22;23285;50.180;7.036;2022-08-19T08:29:05;23.60;99.70
37426;DHT22;23285;50.180;7.036;2022-08-19T08:31:52;23.90;99.90
37426;DHT22;23285;50.180;7.036;2022-08-19T08:34:37;23.90;99.90
37426;DHT22;23285;50.180;7.036;2022-08-19T08:37:22;24.00;99.90
37426;DHT22;23285;50.180;7.036;2022-08-19T08:43:34;24.00;99.50
37426;DHT22;23285;50.180;7.036;2022-08-19T08:52:30;23.80;99.00
37426;DHT22;23285;50.180;7.036;2022-08-19T08:55:23;23.60;99.90
37426;DHT22;23285;50.180;7.036;2022-08-19T08:58:28;23.70;99.90
37426;DHT22;23285;50.180;7.036;2022-08-19T09:01:15;23.90;99.90
37426;DHT22;23285;50.180;7.036;2022-08-19T09:04:04;24.40;98.90
37426;DHT22;23285;50.180;7.036;2022-08-19T09:10:14;23.80;98.50
37426;DHT22;23285;50.180;7.036;2022-08-19T09:16:13;23.80;98.30
37426;DHT22;23285;50.180;7.036;2022-08-19T09:19:05;23.90;98.50
37426;DHT22;23285;50.180;7.036;2022-08-19T09:21:50;24.40;97.60
37426;DHT22;23285;50.180;7.036;2022-08-19T09:24:35;24.80;96.50
37426;DHT22;23285;50.180;7.036;2022-08-19T09:27:22;24.60;96.80
37426;DHT22;23285;50.180;7.036;2022-08-19T09:30:17;25.00;96.90
37426;DHT22;23285;50.180;7.036;2022-08-19T09:33:03;24.90;96.40
37426;DHT22;23285;50.180;7.036;2022-08-19T09:35:49;25.20;95.80
37426;DHT22;23285;50.180;7.036;2022-08-19T09:38:35;25.70;94.70
37426;DHT22;23285;50.180;7.036;2022-08-19T09:41:23;25.30;95.00
37426;DHT22;23285;50.180;7.036;2022-08-19T09:44:09;24.90;96.00
37426;DHT22;23285;50.180;7.036;2022-08-19T09:46:57;25.10;96.20
37426;DHT22;23285;50.180;7.036;2022-08-19T09:49:42;25.40;95.60
37426;DHT22;23285;50.180;7.036;2022-08-19T09:55:13;25.10;95.30
37426;DHT22;23285;50.180;7.036;2022-08-19T09:58:02;25.00;93.90
37426;DHT22;23285;50.180;7.036;2022-08-19T10:03:35;25.20;94.30
37426;DHT22;23285;50.180;7.036;2022-08-19T10:06:22;25.30;94.20
37426;DHT22;23285;50.180;7.036;2022-08-19T10:14:40;25.50;94.30
37426;DHT22;23285;50.180;7.036;2022-08-19T10:17:26;25.70;93.30
37426;DHT22;23285;50.180;7.036;2022-08-19T10:20:12;26.60;93.20
37426;DHT22;23285;50.180;7.036;2022-08-19T10:22:57;26.80;91.50
37426;DHT22;23285;50.180;7.036;2022-08-19T10:25:44;26.70;92.40
37426;DHT22;23285;50.180;7.036;2022-08-19T10:28:29;26.90;91.80
37426;DHT22;23285;50.180;7.036;2022-08-19T10:31:18;27.20;90.50
37426;DHT22;23285;50.180;7.036;2022-08-19T10:34:04;27.00;90.90
37426;DHT22;23285;50.180;7.036;2022-08-19T10:36:49;26.60;90.50
37426;DHT22;23285;50.180;7.036;2022-08-19T10:39:36;26.60;90.50
37426;DHT22;23285;50.180;7.036;2022-08-19T10:42:21;26.80;89.30
37426;DHT22;23285;50.180;7.036;2022-08-19T10:45:06;26.80;89.80
37426;DHT22;23285;50.180;7.036;2022-08-19T10:47:55;26.00;91.10
37426;DHT22;23285;50.180;7.036;2022-08-19T10:50:40;25.80;91.30
37426;DHT22;23285;50.180;7.036;2022-08-19T10:53:43;25.60;91.20
37426;DHT22;23285;50.180;7.036;2022-08-19T10:56:29;25.80;90.90
37426;DHT22;23285;50.180;7.036;2022-08-19T11:02:19;26.20;90.80
37426;DHT22;23285;50.180;7.036;2022-08-19T11:05:05;26.80;85.60
37426;DHT22;23285;50.180;7.036;2022-08-19T11:10:40;27.40;88.20
37426;DHT22;23285;50.180;7.036;2022-08-19T11:13:27;27.40;88.30
37426;DHT22;23285;50.180;7.036;2022-08-19T11:16:16;27.40;86.90
37426;DHT22;23285;50.180;7.036;2022-08-19T11:19:02;27.20;86.40
37426;DHT22;23285;50.180;7.036;2022-08-19T11:21:48;27.00;85.30
37426;DHT22;23285;50.180;7.036;2022-08-19T11:24:34;26.70;88.00
37426;DHT22;23285;50.180;7.036;2022-08-19T11:27:20;26.80;86.00
37426;DHT22;23285;50.180;7.036;2022-08-19T11:30:06;27.30;85.90
37426;DHT22;23285;50.180;7.036;2022-08-19T11:32:52;27.60;85.90
37426;DHT22;23285;50.180;7.036;2022-08-19T11:35:39;27.40;83.30
37426;DHT22;23285;50.180;7.036;2022-08-19T11:38:26;27.20;84.60
37426;DHT22;23285;50.180;7.036;2022-08-19T11:41:11;27.60;85.40
37426;DHT22;23285;50.180;7.036;2022-08-19T11:43:56;27.80;80.80
37426;DHT22;23285;50.180;7.036;2022-08-19T11:46:42;27.90;81.10
37426;DHT22;23285;50.180;7.036;2022-08-19T11:49:30;28.30;79.50
37426;DHT22;23285;50.180;7.036;2022-08-19T11:55:02;28.10;80.20
37426;DHT22;23285;50.180;7.036;2022-08-19T11:57:48;27.80;81.00
37426;DHT22;23285;50.180;7.036;2022-08-19T12:00:34;27.20;82.20
37426;DHT22;23285;50.180;7.036;2022-08-19T12:03:21;27.20;84.10
37426;DHT22;23285;50.180;7.036;2022-08-19T12:06:08;27.10;83.30
37426;DHT22;23285;50.180;7.036;2022-08-19T12:08:55;27.50;85.80
37426;DHT22;23285;50.180;7.036;2022-08-19T12:11:40;27.70;85.70
37426;DHT22;23285;50.180;7.036;2022-08-19T12:14:25;28.00;83.60
37426;DHT22;23285;50.180;7.036;2022-08-19T12:17:12;28.50;83.60
37426;DHT22;23285;50.180;7.036;2022-08-19T12:19:58;28.50;82.90
37426;DHT22;23285;50.180;7.036;2022-08-19T12:31:00;27.30;86.50
37426;DHT22;23285;50.180;7.036;2022-08-19T12:33:46;27.20;84.80
37426;DHT22;23285;50.180;7.036;2022-08-19T12:36:31;27.10;87.30
37426;DHT22;23285;50.180;7.036;2022-08-19T12:42:02;27.00;86.30
37426;DHT22;23285;50.180;7.036;2022-08-19T12:44:47;27.10;85.30
37426;DHT22;23285;50.180;7.036;2022-08-19T12:47:32;26.80;84.20
37426;DHT22;23285;50.180;7.036;2022-08-19T12:50:17;27.10;85.80
37426;DHT22;23285;50.180;7.036;2022-08-19T12:53:02;27.40;82.70
37426;DHT22;23285;50.180;7.036;2022-08-19T12:55:48;27.90;81.40
37426;DHT22;23285;50.180;7.036;2022-08-19T13:01:19;28.50;80.60
37426;DHT22;23285;50.180;7.036;2022-08-19T13:04:05;28.70;78.20
37426;DHT22;23285;50.180;7.036;2022-08-19T13:06:50;28.50;77.70
37426;DHT22;23285;50.180;7.036;2022-08-19T13:09:35;28.20;77.60
37426;DHT22;23285;50.180;7.036;2022-08-19T13:15:06;28.30;77.10
37426;DHT22;23285;50.180;7.036;2022-08-19T13:17:54;28.60;75.90
37426;DHT22;23285;50.180;7.036;2022-08-19T13:20:40;28.70;73.90
37426;DHT22;23285;50.180;7.036;2022-08-19T13:23:28;28.40;74.30
37426;DHT22;23285;50.180;7.036;2022-08-19T13:26:13;28.60;71.20
37426;DHT22;23285;50.180;7.036;2022-08-19T13:32:02;28.60;76.60
37426;DHT22;23285;50.180;7.036;2022-08-19T13:40:37;29.60;70.00
37426;DHT22;23285;50.180;7.036;2022-08-19T13:43:25;29.80;67.20
37426;DHT22;23285;50.180;7.036;2022-08-19T13:46:11;29.60;68.30
37426;DHT22;23285;50.180;7.036;2022-08-19T13:48:59;29.40;66.70
37426;DHT22;23285;50.180;7.036;2022-08-19T13:51:44;29.40;63.80
37426;DHT22;23285;50.180;7.036;2022-08-19T13:54:30;29.40;65.40
37426;DHT22;23285;50.180;7.036;2022-08-19T14:00:01;29.30;65.50
37426;DHT22;23285;50.180;7.036;2022-08-19T14:05:37;29.10;64.20
37426;DHT22;23285;50.180;7.036;2022-08-19T14:11:09;29.80;63.00
37426;DHT22;23285;50.180;7.036;2022-08-19T14:13:54;30.10;63.20
37426;DHT22;23285;50.180;7.036;2022-08-19T14:16:39;29.70;64.40
37426;DHT22;23285;50.180;7.036;2022-08-19T14:19:24;29.50;67.20
37426;DHT22;23285;50.180;7.036;2022-08-19T14:22:09;29.90;63.60
37426;DHT22;23285;50.180;7.036;2022-08-19T14:24:56;30.30;60.30
37426;DHT22;23285;50.180;7.036;2022-08-19T14:27:42;30.10;63.40
37426;DHT22;23285;50.180;7.036;2022-08-19T14:30:30;30.10;64.00
37426;DHT22;23285;50.180;7.036;2022-08-19T14:33:15;29.80;65.50
37426;DHT22;23285;50.180;7.036;2022-08-19T14:36:00;29.80;62.90
37426;DHT22;23285;50.180;7.036;2022-08-19T14:38:46;29.20;65.00
37426;DHT22;23285;50.180;7.036;2022-08-19T14:49:48;30.70;62.40
37426;DHT22;23285;50.180;7.036;2022-08-19T14:52:33;30.90;60.40
37426;DHT22;23285;50.180;7.036;2022-08-19T14:55:18;30.40;61.70
37426;DHT22;23285;50.180;7.036;2022-08-19T14:58:03;30.50;63.30
37426;DHT22;23285;50.180;7.036;2022-08-19T15:00:49;30.00;63.60
37426;DHT22;23285;50.180;7.036;2022-08-19T15:06:20;30.50;63.60
37426;DHT22;23285;50.180;7.036;2022-08-19T15:09:06;30.10;64.80
37426;DHT22;23285;50.180;7.036;2022-08-19T15:11:51;30.00;63.80
37426;DHT22;23285;50.180;7.036;2022-08-19T15:17:22;29.70;64.80
37426;DHT22;23285;50.180;7.036;2022-08-19T15:31:11;29.00;66.90
37426;DHT22;23285;50.180;7.036;2022-08-19T15:36:42;29.40;69.90
37426;DHT22;23285;50.180;7.036;2022-08-19T15:44:58;29.20;71.10
37426;DHT22;23285;50.180;7.036;2022-08-19T15:47:43;29.00;68.90
37426;DHT22;23285;50.180;7.036;2022-08-19T15:50:30;28.60;69.70
37426;DHT22;23285;50.180;7.036;2022-08-19T15:53:19;28.50;71.20
37426;DHT22;23285;50.180;7.036;2022-08-19T15:56:04;28.60;70.20
37426;DHT22;23285;50.180;7.036;2022-08-19T15:58:49;28.30;71.20
37426;DHT22;23285;50.180;7.036;2022-08-19T16:01:53;28.20;72.80
37426;DHT22;23285;50.180;7.036;2022-08-19T16:08:00;28.10;74.50
37426;DHT22;23285;50.180;7.036;2022-08-19T16:13:31;28.40;74.60
37426;DHT22;23285;50.180;7.036;2022-08-19T16:16:28;28.40;72.60
37426;DHT22;23285;50.180;7.036;2022-08-19T16:19:16;28.10;75.60
37426;DHT22;23285;50.180;7.036;2022-08-19T16:22:01;27.90;77.20
37426;DHT22;23285;50.180;7.036;2022-08-19T16:33:03;28.20;79.40
37426;DHT22;23285;50.180;7.036;2022-08-19T16:38:33;28.60;80.10
37426;DHT22;23285;50.180;7.036;2022-08-19T16:44:05;29.00;79.20
37426;DHT22;23285;50.180;7.036;2022-08-19T16:46:51;28.30;80.20
37426;DHT22;23285;50.180;7.036;2022-08-19T16:52:22;28.00;81.10
37426;DHT22;23285;50.180;7.036;2022-08-19T16:55:10;27.90;80.60
37426;DHT22;23285;50.180;7.036;2022-08-19T16:57:55;27.90;80.30
37426;DHT22;23285;50.180;7.036;2022-08-19T17:00:41;27.80;81.30
37426;DHT22;23285;50.180;7.036;2022-08-19T17:06:14;27.80;82.40
37426;DHT22;23285;50.180;7.036;2022-08-19T17:09:01;27.60;83.30
37426;DHT22;23285;50.180;7.036;2022-08-19T17:11:46;27.30;83.70
37426;DHT22;23285;50.180;7.036;2022-08-19T17:14:32;26.90;84.30
37426;DHT22;23285;50.180;7.036;2022-08-19T17:17:17;26.40;84.10
37426;DHT22;23285;50.180;7.036;2022-08-19T17:20:04;26.30;86.60
37426;DHT22;23285;50.180;7.036;2022-08-19T17:22:50;26.00;87.80
37426;DHT22;23285;50.180;7.036;2022-08-19T17:25:35;25.70;86.60
37426;DHT22;23285;50.180;7.036;2022-08-19T17:28:25;25.60;89.00
37426;DHT22;23285;50.180;7.036;2022-08-19T17:33:56;25.40;90.00
37426;DHT22;23285;50.180;7.036;2022-08-19T17:36:42;25.00;89.60
37426;DHT22;23285;50.180;7.036;2022-08-19T17:39:27;25.10;88.80
37426;DHT22;23285;50.180;7.036;2022-08-19T17:42:12;25.00;89.30
37426;DHT22;23285;50.180;7.036;2022-08-19T17:44:57;25.10;89.10
37426;DHT22;23285;50.180;7.036;2022-08-19T17:50:29;25.80;90.30
37426;DHT22;23285;50.180;7.036;2022-08-19T17:53:14;26.00;89.50
37426;DHT22;23285;50.180;7.036;2022-08-19T17:58:45;25.80;90.30
37426;DHT22;23285;50.180;7.036;2022-08-19T18:01:32;25.50;90.40
37426;DHT22;23285;50.180;7.036;2022-08-19T18:07:03;25.00;92.10
37426;DHT22;23285;50.180;7.036;2022-08-19T18:09:49;24.70;91.80
37426;DHT22;23285;50.180;7.036;2022-08-19T18:18:08;24.20;94.30
37426;DHT22;23285;50.180;7.036;2022-08-19T18:20:54;24.00;93.90
37426;DHT22;23285;50.180;7.036;2022-08-19T18:23:40;24.30;93.50
37426;DHT22;23285;50.180;7.036;2022-08-19T18:26:25;24.30;93.80
37426;DHT22;23285;50.180;7.036;2022-08-19T18:29:10;24.70;93.20
37426;DHT22;23285;50.180;7.036;2022-08-19T18:40:19;24.90;93.20
37426;DHT22;23285;50.180;7.036;2022-08-19T18:43:24;24.90;93.20
37426;DHT22;23285;50.180;7.036;2022-08-19T18:46:27;25.10;92.50
37426;DHT22;23285;50.180;7.036;2022-08-19T18:49:32;25.20;92.60
37426;DHT22;23285;50.180;7.036;2022-08-19T18:52:18;25.20;92.10
37426;DHT22;23285;50.180;7.036;2022-08-19T18:57:49;25.20;92.70
37426;DHT22;23285;50.180;7.036;2022-08-19T19:00:35;25.10;92.50
37426;DHT22;23285;50.180;7.036;2022-08-19T19:03:21;25.10;92.30
37426;DHT22;23285;50.180;7.036;2022-08-19T19:11:41;25.20;92.70
37426;DHT22;23285;50.180;7.036;2022-08-19T19:14:32;24.70;93.20
37426;DHT22;23285;50.180;7.036;2022-08-19T19:20:12;24.40;93.90
37426;DHT22;23285;50.180;7.036;2022-08-19T19:22:56;24.20;93.40
37426;DHT22;23285;50.180;7.036;2022-08-19T19:25:42;24.10;94.00
37426;DHT22;23285;50.180;7.036;2022-08-19T19:31:22;24.30;94.40
37426;DHT22;23285;50.180;7.036;2022-08-19T19:34:07;24.50;93.80
37426;DHT22;23285;50.180;7.036;2022-08-19T19:39:37;24.40;94.20
37426;DHT22;23285;50.180;7.036;2022-08-19T19:42:23;24.60;93.00
37426;DHT22;23285;50.180;7.036;2022-08-19T19:45:08;24.60;93.10
37426;DHT22;23285;50.180;7.036;2022-08-19T19:47:53;25.00;92.50
37426;DHT22;23285;50.180;7.036;2022-08-19T19:50:38;25.00;92.40
37426;DHT22;23285;50.180;7.036;2022-08-19T19:53:25;25.10;92.20
37426;DHT22;23285;50.180;7.036;2022-08-19T19:56:11;24.50;93.70
37426;DHT22;23285;50.180;7.036;2022-08-19T19:58:56;24.20;93.80
37426;DHT22;23285;50.180;7.036;2022-08-19T20:04:29;23.80;95.40
37426;DHT22;23285;50.180;7.036;2022-08-19T20:07:15;23.80;93.90
37426;DHT22;23285;50.180;7.036;2022-08-19T20:09:59;23.80;94.00
37426;DHT22;23285;50.180;7.036;2022-08-19T20:12:45;23.80;93.90
37426;DHT22;23285;50.180;7.036;2022-08-19T20:15:30;23.70;93.90
37426;DHT22;23285;50.180;7.036;2022-08-19T20:18:15;23.50;94.80
37426;DHT22;23285;50.180;7.036;2022-08-19T20:23:46;23.20;96.50
37426;DHT22;23285;50.180;7.036;2022-08-19T20:26:31;23.20;95.00
37426;DHT22;23285;50.180;7.036;2022-08-19T20:32:03;23.60;96.10
37426;DHT22;23285;50.180;7.036;2022-08-19T20:40:19;23.90;96.00
37426;DHT22;23285;50.180;7.036;2022-08-19T20:45:54;23.60;96.40
37426;DHT22;23285;50.180;7.036;2022-08-19T20:51:28;23.50;96.70
37426;DHT22;23285;50.180;7.036;2022-08-19T20:54:13;23.40;96.10
37426;DHT22;23285;50.180;7.036;2022-08-19T20:56:59;23.50;95.30
37426;DHT22;23285;50.180;7.036;2022-08-19T20:59:44;23.40;95.70
37426;DHT22;23285;50.180;7.036;2022-08-19T21:02:29;23.50;95.50
37426;DHT22;23285;50.180;7.036;2022-08-19T21:05:14;23.60;95.40
37426;DHT22;23285;50.180;7.036;2022-08-19T21:10:47;23.10;97.50
37426;DHT22;23285;50.180;7.036;2022-08-19T21:16:18;23.40;97.20
37426;DHT22;23285;50.180;7.036;2022-08-19T21:19:03;23.60;96.00
37426;DHT22;23285;50.180;7.036;2022-08-19T21:21:49;24.00;96.30
37426;DHT22;23285;50.180;7.036;2022-08-19T21:30:05;23.30;97.80
37426;DHT22;23285;50.180;7.036;2022-08-19T21:32:51;23.10;97.70
37426;DHT22;23285;50.180;7.036;2022-08-19T21:35:36;23.10;97.40
37426;DHT22;23285;50.180;7.036;2022-08-19T21:38:21;23.10;96.90
37426;DHT22;23285;50.180;7.036;2022-08-19T21:49:23;22.60;99.40
37426;DHT22;23285;50.180;7.036;2022-08-19T21:52:08;22.50;99.80
37426;DHT22;23285;50.180;7.036;2022-08-19T21:54:54;22.20;99.90
37426;DHT22;23285;50.180;7.036;2022-08-19T22:00:25;22.50;99.90
37426;DHT22;23285;50.180;7.036;2022-08-19T22:03:12;22.30;99.90
37426;DHT22;23285;50.180;7.036;2022-08-19T22:06:01;22.20;99.90
37426;DHT22;23285;50.180;7.036;2022-08-19T22:08:46;22.30;99.90
37426;DHT22;23285;50.180;7.036;2022-08-19T22:14:17;22.40;99.90
37426;DHT22;23285;50.180;7.036;2022-08-19T22:17:03;22.30;99.90
37426;DHT22;23285;50.180;7.036;2022-08-19T22:19:49;22.20;99.90
37426;DHT22;23285;50.180;7.036;2022-08-19T22:22:37;22.00;99.90
37426;DHT22;23285;50.180;7.036;2022-08-19T22:30:59;22.70;99.90
37426;DHT22;23285;50.180;7.036;2022-08-19T22:33:46;22.60;99.90
37426;DHT22;23285;50.180;7.036;2022-08-19T22:36:32;22.50;99.90
37426;DHT22;23285;50.180;7.036;2022-08-19T22:39:19;22.50;99.90
37426;DHT22;23285;50.180;7.036;2022-08-19T22:42:04;22.50;99.90
37426;DHT22;23285;50.180;7.036;2022-08-19T22:47:36;21.90;99.90
37426;DHT22;23285;50.180;7.036;2022-08-19T22:50:21;21.90;99.90
37426;DHT22;23285;50.180;7.036;2022-08-19T22:53:08;22.10;99.90
37426;DHT22;23285;50.180;7.036;2022-08-19T22:58:39;21.80;99.90
37426;DHT22;23285;50.180;7.036;2022-08-19T23:01:25;21.60;99.90
37426;DHT22;23285;50.180;7.036;2022-08-19T23:04:11;21.70;99.90
37426;DHT22;23285;50.180;7.036;2022-08-19T23:06:57;21.60;99.90
37426;DHT22;23285;50.180;7.036;2022-08-19T23:15:21;21.60;99.90
37426;DHT22;23285;50.180;7.036;2022-08-19T23:18:07;21.60;99.90
37426;DHT22;23285;50.180;7.036;2022-08-19T23:20:52;21.10;99.90
37426;DHT22;23285;50.180;7.036;2022-08-19T23:23:38;21.20;99.90
37426;DHT22;23285;50.180;7.036;2022-08-19T23:26:23;21.20;99.90
37426;DHT22;23285;50.180;7.036;2022-08-19T23:29:08;21.30;99.90
37426;DHT22;23285;50.180;7.036;2022-08-19T23:34:57;21.30;99.90
37426;DHT22;23285;50.180;7.036;2022-08-19T23:37:42;21.30;99.90
37426;DHT22;23285;50.180;7.036;2022-08-19T23:43:12;21.40;99.90
37426;DHT22;23285;50.180;7.036;2022-08-19T23:46:00;21.40;99.90